createdAt,value
2023-05-01T00:00:06.067Z,99629.09
2023-05-01T00:02:34.198Z,99622.09
2023-05-01T00:05:02.270Z,99615.09
2023-05-01T00:07:31.068Z,99609.56
2023-05-01T00:09:59.349Z,99593.75
2023-05-01T00:12:27.590Z,99589.59
2023-05-01T00:14:55.694Z,99579.97
2023-05-01T00:17:25.013Z,99589.91
2023-05-01T00:19:53.601Z,99584.28
2023-05-01T00:22:21.597Z,99583.59
2023-05-01T00:24:50.304Z,99577.78
2023-05-01T00:27:18.214Z,99576.41
2023-05-01T00:29:46.492Z,99578.47
2023-05-01T00:32:15.462Z,99584.69
2023-05-01T00:34:46.155Z,99585.25
2023-05-01T00:37:14.028Z,99580.97
2023-05-01T00:39:41.908Z,99582.75
2023-05-01T00:42:09.895Z,99586.63
2023-05-01T00:44:37.921Z,99578.44
2023-05-01T00:47:05.893Z,99583.41
2023-05-01T00:49:34.290Z,99583.69
2023-05-01T00:52:03.861Z,99585.47
2023-05-01T00:54:31.772Z,99586.31
2023-05-01T00:56:59.780Z,99584.78
2023-05-01T00:59:27.797Z,99590.31
2023-05-01T01:01:56.630Z,99589.75
2023-05-01T01:04:24.897Z,99594.88
2023-05-01T01:06:59.777Z,99596.94
2023-05-01T01:09:39.974Z,99602.47
2023-05-01T01:12:17.090Z,99600.28
2023-05-01T01:14:52.107Z,99600.97
2023-05-01T01:17:29.684Z,99599.44
2023-05-01T01:20:15.166Z,99598.31
2023-05-01T01:22:47.256Z,99605.53
2023-05-01T01:25:48.556Z,99607.47
2023-05-01T01:28:36.949Z,99605.94
2023-05-01T01:31:15.419Z,99581.09
2023-05-01T01:33:58.735Z,99607.34
2023-05-01T01:36:40.161Z,99609.84
2023-05-01T01:39:16.306Z,99613.16
2023-05-01T01:41:50.409Z,99615.50
2023-05-01T01:44:24.119Z,99618.66
2023-05-01T01:46:55.416Z,99620.59
2023-05-01T01:49:27.526Z,99627.94
2023-05-01T01:51:58.043Z,99604.09
2023-05-01T01:54:31.687Z,99621.16
2023-05-01T01:57:03.450Z,99632.81
2023-05-01T01:59:34.922Z,99633.63
2023-05-01T02:02:05.307Z,99631.69
2023-05-01T02:04:36.249Z,99628.03
2023-05-01T02:07:06.185Z,99620.63
2023-05-01T02:09:36.597Z,99623.16
2023-05-01T02:12:07.857Z,99616.09
2023-05-01T02:14:36.738Z,99618.78
2023-05-01T02:17:06.028Z,99619.09
2023-05-01T02:19:36.379Z,99628.78
2023-05-01T02:22:06.101Z,99635.47
2023-05-01T02:24:35.924Z,99633.50
2023-05-01T02:27:08.609Z,99635.38
2023-05-01T02:29:37.807Z,99625.19
2023-05-01T02:32:06.216Z,99626.06
2023-05-01T02:34:37.222Z,99622.72
2023-05-01T02:37:07.452Z,99627.41
2023-05-01T02:39:36.109Z,99625.28
2023-05-01T02:42:05.705Z,99597.25
2023-05-01T02:44:40.996Z,99635.31
2023-05-01T02:47:10.164Z,99632.06
2023-05-01T02:49:41.021Z,99644.38
2023-05-01T02:52:09.635Z,99642.97
2023-05-01T02:54:37.803Z,99656.50
2023-05-01T02:57:06.366Z,99638.44
2023-05-01T02:59:35.414Z,99672.41
2023-05-01T03:02:03.322Z,99664.88
2023-05-01T03:04:31.595Z,99666.91
2023-05-01T03:07:00.919Z,99661.53
2023-05-01T03:09:28.762Z,99660.09
2023-05-01T03:11:56.761Z,99655.44
2023-05-01T03:14:25.214Z,99662.91
2023-05-01T03:16:53.211Z,99668.72
2023-05-01T03:19:21.512Z,99683.31
2023-05-01T03:21:49.404Z,99685.59
2023-05-01T03:24:18.652Z,99670.63
2023-05-01T03:26:46.548Z,99680.19
2023-05-01T03:29:14.460Z,99678.47
2023-05-01T03:31:42.424Z,99680.13
2023-05-01T03:34:10.361Z,99683.31
2023-05-01T03:36:38.275Z,99676.88
2023-05-01T03:39:08.595Z,99675.22
2023-05-01T03:41:37.924Z,99671.66
2023-05-01T03:44:06.075Z,99657.22
2023-05-01T03:46:34.126Z,99663.22
2023-05-01T03:49:02.113Z,99668.91
2023-05-01T03:51:30.028Z,99668.97
2023-05-01T03:53:58.899Z,99683.38
2023-05-01T03:56:27.016Z,99686.88
2023-05-01T03:58:57.776Z,99699.00
2023-05-01T04:01:26.456Z,99702.06
2023-05-01T04:03:54.524Z,99706.72
2023-05-01T04:06:23.056Z,99710.78
2023-05-01T04:08:51.148Z,99709.16
2023-05-01T04:11:19.026Z,99711.53
2023-05-01T04:13:47.196Z,99718.38
2023-05-01T04:16:16.633Z,99715.59
2023-05-01T04:18:44.639Z,99699.84
2023-05-01T04:21:14.597Z,99723.38
2023-05-01T04:23:42.575Z,99735.41
2023-05-01T04:26:10.503Z,99725.13
2023-05-01T04:28:38.426Z,99724.97
2023-05-01T04:31:06.916Z,99729.19
2023-05-01T04:33:36.311Z,99735.88
2023-05-01T04:36:04.273Z,99735.75
2023-05-01T04:38:32.375Z,99738.13
2023-05-01T04:41:00.281Z,99736.91
2023-05-01T04:43:28.252Z,99742.03
2023-05-01T04:45:56.242Z,99736.38
2023-05-01T04:48:24.157Z,99743.53
2023-05-01T04:50:53.456Z,99746.28
2023-05-01T04:53:21.432Z,99749.81
2023-05-01T04:55:49.368Z,99741.41
2023-05-01T04:58:17.365Z,99748.94
2023-05-01T05:00:45.324Z,99743.16
2023-05-01T05:03:13.357Z,99743.16
2023-05-01T05:05:41.272Z,99750.81
2023-05-01T05:08:10.643Z,99748.44
2023-05-01T05:10:38.585Z,99758.69
2023-05-01T05:13:06.554Z,99758.56
2023-05-01T05:15:34.420Z,99764.78
2023-05-01T05:18:02.489Z,99762.34
2023-05-01T05:20:30.523Z,99764.63
2023-05-01T05:22:58.625Z,99773.44
2023-05-01T05:25:27.979Z,99770.25
2023-05-01T05:27:55.908Z,99770.41
2023-05-01T05:30:23.950Z,99761.25
2023-05-01T05:32:52.042Z,99768.06
2023-05-01T05:35:20.080Z,99755.06
2023-05-01T05:37:48.048Z,99771.09
2023-05-01T05:40:16.232Z,99773.97
2023-05-01T05:42:45.485Z,99781.94
2023-05-01T05:45:13.352Z,99770.59
2023-05-01T05:47:41.319Z,99767.72
2023-05-01T05:50:15.437Z,99781.81
2023-05-01T05:52:43.378Z,99788.13
2023-05-01T05:55:11.374Z,99784.38
2023-05-01T05:57:39.272Z,99787.81
2023-05-01T06:00:10.686Z,99795.41
2023-05-01T06:02:38.778Z,99800.69
2023-05-01T06:05:07.544Z,99794.34
2023-05-01T06:07:36.062Z,99802.81
2023-05-01T06:10:05.469Z,99797.09
2023-05-01T06:12:35.183Z,99799.56
2023-05-01T06:15:06.492Z,99799.03
2023-05-01T06:17:37.560Z,99797.59
2023-05-01T06:20:06.784Z,99802.56
2023-05-01T06:22:34.757Z,99801.41
2023-05-01T06:25:02.729Z,99802.88
2023-05-01T06:27:30.618Z,99803.50
2023-05-01T06:29:58.520Z,99801.59
2023-05-01T06:32:26.538Z,99803.72
2023-05-01T06:34:56.033Z,99798.94
2023-05-01T06:37:23.999Z,99807.06
2023-05-01T06:39:51.886Z,99803.44
2023-05-01T06:42:21.575Z,99802.75
2023-05-01T06:44:49.463Z,99802.72
2023-05-01T06:47:17.421Z,99792.69
2023-05-01T06:49:45.370Z,99807.38
2023-05-01T06:52:14.627Z,99813.50
2023-05-01T06:54:42.543Z,99792.50
2023-05-01T06:57:10.453Z,99804.09
2023-05-01T06:59:38.405Z,99819.78
2023-05-01T07:02:06.307Z,99829.81
2023-05-01T07:04:34.626Z,99832.69
2023-05-01T07:07:03.248Z,99832.19
2023-05-01T07:09:32.533Z,99829.72
2023-05-01T07:12:00.485Z,99834.50
2023-05-01T07:14:28.427Z,99835.31
2023-05-01T07:16:56.363Z,99821.38
2023-05-01T07:19:24.316Z,99837.72
2023-05-01T07:21:52.217Z,99840.25
2023-05-01T07:24:20.442Z,99842.44
2023-05-01T07:26:49.714Z,99840.78
2023-05-01T07:29:17.668Z,99842.06
2023-05-01T07:31:46.941Z,99844.72
2023-05-01T07:34:15.211Z,99846.56
2023-05-01T07:36:43.110Z,99844.59
2023-05-01T07:39:11.087Z,99846.19
2023-05-01T07:41:38.973Z,99850.78
2023-05-01T07:44:08.272Z,99850.84
2023-05-01T07:46:37.026Z,99847.53
2023-05-01T07:49:05.461Z,99843.53
2023-05-01T07:51:33.464Z,99846.25
2023-05-01T07:54:04.551Z,99848.69
2023-05-01T07:56:32.725Z,99844.44
2023-05-01T07:59:00.642Z,99851.56
2023-05-01T08:01:30.049Z,99845.19
2023-05-01T08:03:58.105Z,99853.44
2023-05-01T08:06:26.514Z,99846.25
2023-05-01T08:08:54.448Z,99850.47
2023-05-01T08:11:22.859Z,99853.47
2023-05-01T08:13:51.434Z,99856.84
2023-05-01T08:16:21.734Z,99860.59
2023-05-01T08:18:51.542Z,99858.59
2023-05-01T08:21:19.382Z,99837.84
2023-05-01T08:23:47.336Z,99858.78
2023-05-01T08:26:15.302Z,99863.00
2023-05-01T08:28:43.387Z,99859.19
2023-05-01T08:31:11.618Z,99853.44
2023-05-01T08:33:42.087Z,99854.13
2023-05-01T08:36:12.297Z,99857.44
2023-05-01T08:38:40.362Z,99860.41
2023-05-01T08:41:08.262Z,99862.72
2023-05-01T08:43:36.564Z,99861.59
2023-05-01T08:46:08.219Z,99853.38
2023-05-01T08:48:37.918Z,99852.16
2023-05-01T08:51:07.248Z,99855.81
2023-05-01T08:53:38.397Z,99848.09
2023-05-01T08:56:07.854Z,99845.06
2023-05-01T08:58:36.949Z,99852.66
2023-05-01T09:01:05.797Z,99842.69
2023-05-01T09:03:34.658Z,99848.00
2023-05-01T09:06:04.420Z,99847.50
2023-05-01T09:08:32.517Z,99845.75
2023-05-01T09:11:02.816Z,99840.06
2023-05-01T09:13:31.117Z,99843.38
2023-05-01T09:16:00.483Z,99845.31
2023-05-01T09:18:28.736Z,99837.22
2023-05-01T09:20:56.979Z,99842.94
2023-05-01T09:23:24.966Z,99840.03
2023-05-01T09:25:53.597Z,99849.00
2023-05-01T09:28:41.709Z,99844.41
2023-05-01T09:31:23.753Z,99846.72
2023-05-01T09:33:55.097Z,99842.47
2023-05-01T09:36:24.558Z,99840.81
2023-05-01T09:38:52.665Z,99845.13
2023-05-01T09:41:22.409Z,99841.56
2023-05-01T09:43:57.113Z,99849.41
2023-05-01T09:46:26.174Z,99836.91
2023-05-01T09:48:56.433Z,99836.28
2023-05-01T09:51:26.877Z,99838.34
2023-05-01T09:53:56.677Z,99830.41
2023-05-01T09:56:25.024Z,99832.88
2023-05-01T09:58:56.477Z,99835.72
2023-05-01T10:01:40.391Z,99834.06
2023-05-01T10:04:08.843Z,99830.66
2023-05-01T10:06:37.063Z,99839.13
2023-05-01T10:09:07.041Z,99801.59
2023-05-01T10:11:49.303Z,99823.66
2023-05-01T10:14:18.771Z,99835.06
2023-05-01T10:16:47.066Z,99843.09
2023-05-01T10:19:18.049Z,99845.13
2023-05-01T10:21:45.977Z,99843.47
2023-05-01T10:24:15.233Z,99831.66
2023-05-01T10:26:43.994Z,99835.81
2023-05-01T10:29:13.145Z,99844.59
2023-05-01T10:31:42.826Z,99844.53
2023-05-01T10:34:13.544Z,99842.25
2023-05-01T10:36:48.872Z,99844.06
2023-05-01T10:39:31.399Z,99845.50
2023-05-01T10:42:04.819Z,99829.00
2023-05-01T10:44:34.932Z,99841.94
2023-05-01T10:47:37.772Z,99843.38
2023-05-01T10:50:08.721Z,99848.22
2023-05-01T10:53:14.587Z,99858.69
2023-05-01T10:55:43.958Z,99851.19
2023-05-01T10:58:12.004Z,99858.09
2023-05-01T11:00:39.959Z,99856.34
2023-05-01T11:03:38.980Z,99852.84
2023-05-01T11:06:09.261Z,99860.97
2023-05-01T11:08:38.774Z,99852.81
2023-05-01T11:11:51.975Z,99849.50
2023-05-01T11:14:19.985Z,99851.47
2023-05-01T11:16:49.432Z,99842.44
2023-05-01T11:19:52.511Z,99865.31
2023-05-01T11:22:21.963Z,99860.69
2023-05-01T11:24:50.334Z,99853.97
2023-05-01T11:27:18.457Z,99861.13
2023-05-01T11:29:49.676Z,99863.84
2023-05-01T11:32:27.177Z,99856.75
2023-05-01T11:34:55.859Z,99855.47
2023-05-01T11:37:44.339Z,99867.47
2023-05-01T11:40:22.615Z,99859.22
2023-05-01T11:42:52.217Z,99875.69
2023-05-01T11:45:20.911Z,99866.19
2023-05-01T11:47:49.893Z,99863.16
2023-05-01T11:50:18.131Z,99870.72
2023-05-01T11:52:49.771Z,99863.44
2023-05-01T11:55:17.926Z,99855.66
2023-05-01T11:57:50.150Z,99855.88
2023-05-01T12:00:27.749Z,99864.94
2023-05-01T12:03:04.084Z,99841.44
2023-05-01T12:05:35.499Z,99834.84
2023-05-01T12:08:18.729Z,99850.63
2023-05-01T12:10:48.559Z,99856.03
2023-05-01T12:13:17.909Z,99851.34
2023-05-01T12:15:47.327Z,99860.03
2023-05-01T12:18:17.196Z,99855.66
2023-05-01T12:20:47.264Z,99839.19
2023-05-01T12:23:17.516Z,99817.84
2023-05-01T12:25:46.850Z,99860.47
2023-05-01T12:28:15.991Z,99862.34
2023-05-01T12:30:45.986Z,99864.34
2023-05-01T12:33:15.234Z,99861.53
2023-05-01T12:35:45.474Z,99858.38
2023-05-01T12:38:16.623Z,99851.00
2023-05-01T12:40:55.850Z,99851.94
2023-05-01T12:43:30.736Z,99844.88
2023-05-01T12:45:58.892Z,99860.34
2023-05-01T12:48:27.959Z,99858.78
2023-05-01T12:50:56.854Z,99855.09
2023-05-01T12:53:27.603Z,99849.44
2023-05-01T12:55:57.381Z,99848.28
2023-05-01T12:58:35.915Z,99835.09
2023-05-01T13:01:11.987Z,99852.53
2023-05-01T13:03:44.983Z,99854.81
2023-05-01T13:06:13.041Z,99847.47
2023-05-01T13:08:41.385Z,99844.94
2023-05-01T13:11:14.064Z,99842.66
2023-05-01T13:13:42.467Z,99839.38
2023-05-01T13:16:13.269Z,99818.66
2023-05-01T13:18:46.301Z,99838.03
2023-05-01T13:21:17.235Z,99837.63
2023-05-01T13:23:54.810Z,99842.22
2023-05-01T13:26:30.468Z,99837.50
2023-05-01T13:29:00.090Z,99840.88
2023-05-01T13:31:29.497Z,99836.00
2023-05-01T13:33:59.989Z,99847.91
2023-05-01T13:36:33.439Z,99842.66
2023-05-01T13:39:01.568Z,99843.00
2023-05-01T13:41:30.587Z,99843.22
2023-05-01T13:43:58.831Z,99844.56
2023-05-01T13:46:28.255Z,99849.75
2023-05-01T13:49:08.912Z,99839.16
2023-05-01T13:51:38.300Z,99824.50
2023-05-01T13:54:08.104Z,99844.25
2023-05-01T13:56:36.590Z,99840.28
2023-05-01T13:59:04.990Z,99844.81
2023-05-01T14:01:33.368Z,99839.78
2023-05-01T14:04:04.355Z,99850.44
2023-05-01T14:06:32.449Z,99844.69
2023-05-01T14:09:01.118Z,99841.28
2023-05-01T14:11:29.730Z,99839.97
2023-05-01T14:14:00.871Z,99842.56
2023-05-01T14:16:31.643Z,99846.19
2023-05-01T14:18:59.670Z,99844.69
2023-05-01T14:21:29.220Z,99851.53
2023-05-01T14:23:58.300Z,99843.72
2023-05-01T14:26:26.547Z,99847.41
2023-05-01T14:28:54.696Z,99846.13
2023-05-01T14:31:27.198Z,99856.09
2023-05-01T14:33:57.872Z,99851.19
2023-05-01T14:36:26.698Z,99848.53
2023-05-01T14:38:57.696Z,99848.28
2023-05-01T14:41:25.703Z,99855.25
2023-05-01T14:43:54.333Z,99847.22
2023-05-01T14:46:31.926Z,99843.94
2023-05-01T14:49:01.002Z,99841.78
2023-05-01T14:51:31.288Z,99839.47
2023-05-01T14:54:00.753Z,99847.16
2023-05-01T14:56:28.644Z,99840.50
2023-05-01T14:58:56.589Z,99838.16
2023-05-01T15:01:24.572Z,99830.16
2023-05-01T15:03:53.475Z,99834.84
2023-05-01T15:06:21.503Z,99832.63
2023-05-01T15:08:49.433Z,99825.69
2023-05-01T15:11:20.894Z,99835.56
2023-05-01T15:13:50.501Z,99840.19
2023-05-01T15:16:18.672Z,99840.00
2023-05-01T15:18:46.645Z,99831.69
2023-05-01T15:21:14.542Z,99830.16
2023-05-01T15:23:45.259Z,99836.41
2023-05-01T15:26:13.935Z,99803.63
2023-05-01T15:28:43.363Z,99839.28
2023-05-01T15:31:11.520Z,99843.63
2023-05-01T15:33:39.520Z,99840.59
2023-05-01T15:36:07.826Z,99840.06
2023-05-01T15:38:35.701Z,99832.34
2023-05-01T15:41:03.660Z,99850.72
2023-05-01T15:43:31.578Z,99843.88
2023-05-01T15:46:00.899Z,99848.34
2023-05-01T15:48:28.915Z,99845.41
2023-05-01T15:50:56.869Z,99849.44
2023-05-01T15:53:24.797Z,99853.75
2023-05-01T15:55:53.347Z,99851.34
2023-05-01T15:58:24.707Z,99857.81
2023-05-01T16:00:52.917Z,99853.47
2023-05-01T16:03:22.374Z,99859.72
2023-05-01T16:05:50.637Z,99855.84
2023-05-01T16:08:19.060Z,99854.72
2023-05-01T16:10:47.111Z,99851.06
2023-05-01T16:13:15.494Z,99858.47
2023-05-01T16:15:43.442Z,99863.63
2023-05-01T16:18:19.352Z,99862.78
2023-05-01T16:20:48.673Z,99866.34
2023-05-01T16:23:16.824Z,99870.47
2023-05-01T16:25:44.911Z,99873.78
2023-05-01T16:28:13.812Z,99868.56
2023-05-01T16:30:42.962Z,99856.72
2023-05-01T16:33:18.562Z,99870.63
2023-05-01T16:35:50.278Z,99875.84
2023-05-01T16:38:18.581Z,99874.69
2023-05-01T16:40:48.073Z,99888.50
2023-05-01T16:43:16.013Z,99886.16
2023-05-01T16:45:43.922Z,99884.56
2023-05-01T16:48:15.034Z,99888.13
2023-05-01T16:50:43.038Z,99882.75
2023-05-01T16:53:12.335Z,99882.28
2023-05-01T16:55:40.175Z,99889.13
2023-05-01T16:58:08.328Z,99889.72
2023-05-01T17:00:36.376Z,99894.50
2023-05-01T17:03:04.402Z,99892.91
2023-05-01T17:05:32.437Z,99895.03
2023-05-01T17:08:00.322Z,99901.41
2023-05-01T17:10:29.860Z,99900.34
2023-05-01T17:12:57.761Z,99894.53
2023-05-01T17:15:25.674Z,99898.63
2023-05-01T17:17:53.577Z,99906.88
2023-05-01T17:20:21.840Z,99900.50
2023-05-01T17:22:49.918Z,99904.88
2023-05-01T17:25:17.888Z,99901.31
2023-05-01T17:27:47.250Z,99906.72
2023-05-01T17:30:15.340Z,99902.88
2023-05-01T17:32:43.533Z,99913.13
2023-05-01T17:35:11.617Z,99911.22
2023-05-01T17:37:40.527Z,99914.13
2023-05-01T17:40:11.083Z,99918.13
2023-05-01T17:42:38.992Z,99921.34
2023-05-01T17:45:10.406Z,99921.63
2023-05-01T17:47:41.710Z,99931.13
2023-05-01T17:50:12.105Z,99924.03
2023-05-01T17:52:40.198Z,99929.69
2023-05-01T17:55:08.852Z,99929.16
2023-05-01T17:57:37.073Z,99935.28
2023-05-01T18:00:06.665Z,99934.44
2023-05-01T18:02:36.291Z,99941.63
2023-05-01T18:05:05.421Z,99942.00
2023-05-01T18:07:33.388Z,99947.13
2023-05-01T18:10:01.606Z,99948.31
2023-05-01T18:12:30.850Z,99938.88
2023-05-01T18:14:58.801Z,99949.44
2023-05-01T18:17:26.768Z,99957.06
2023-05-01T18:19:56.189Z,99960.41
2023-05-01T18:22:24.124Z,99967.03
2023-05-01T18:24:52.032Z,99968.16
2023-05-01T18:27:19.955Z,99970.31
2023-05-01T18:29:47.857Z,99975.97
2023-05-01T18:32:15.827Z,99976.94
2023-05-01T18:34:45.564Z,99982.50
2023-05-01T18:37:15.489Z,99986.47
2023-05-01T18:39:43.436Z,99987.06
2023-05-01T18:42:11.272Z,99991.56
2023-05-01T18:44:39.151Z,99990.94
2023-05-01T18:47:07.082Z,99994.91
2023-05-01T18:49:35.152Z,100001.56
2023-05-01T18:52:03.412Z,100005.19
2023-05-01T18:54:32.701Z,100010.59
2023-05-01T18:57:00.656Z,100006.81
2023-05-01T18:59:31.027Z,100015.50
2023-05-01T19:01:59.155Z,100016.88
2023-05-01T19:04:27.106Z,100018.63
2023-05-01T19:06:55.165Z,100028.75
2023-05-01T19:09:23.264Z,100031.25
2023-05-01T19:11:52.598Z,100030.16
2023-05-01T19:14:23.046Z,100026.13
2023-05-01T19:16:51.010Z,100030.03
2023-05-01T19:19:18.966Z,100032.22
2023-05-01T19:21:46.902Z,100039.81
2023-05-01T19:24:14.766Z,100046.84
2023-05-01T19:26:42.778Z,100040.50
2023-05-01T19:29:12.373Z,100042.00
2023-05-01T19:31:40.296Z,100040.81
2023-05-01T19:34:08.423Z,100045.97
2023-05-01T19:36:36.498Z,100022.84
2023-05-01T19:39:05.397Z,100042.78
2023-05-01T19:41:33.712Z,100056.84
2023-05-01T19:44:01.892Z,100054.97
2023-05-01T19:46:31.177Z,100051.66
2023-05-01T19:48:59.127Z,100055.44
2023-05-01T19:51:28.138Z,100053.78
2023-05-01T19:53:56.927Z,100055.69
2023-05-01T19:56:25.371Z,100058.78
2023-05-01T19:58:54.820Z,100063.25
2023-05-01T20:01:22.761Z,100060.50
2023-05-01T20:03:52.231Z,100057.75
2023-05-01T20:06:20.215Z,100053.88
2023-05-01T20:08:48.476Z,100061.78
2023-05-01T20:11:16.347Z,100060.41
2023-05-01T20:13:45.522Z,100059.00
2023-05-01T20:16:13.448Z,100069.13
2023-05-01T20:18:41.337Z,100062.19
2023-05-01T20:21:10.692Z,100067.72
2023-05-01T20:23:38.996Z,100074.25
2023-05-01T20:26:07.300Z,100068.00
2023-05-01T20:28:35.192Z,100072.16
2023-05-01T20:31:03.656Z,100075.69
2023-05-01T20:33:31.558Z,100071.47
2023-05-01T20:35:59.436Z,100080.59
2023-05-01T20:38:29.442Z,100082.91
2023-05-01T20:40:57.390Z,100087.44
2023-05-01T20:43:25.308Z,100088.66
2023-05-01T20:45:53.292Z,100084.75
2023-05-01T20:48:21.564Z,100085.97
2023-05-01T20:50:49.952Z,100090.19
2023-05-01T20:53:19.018Z,100085.19
2023-05-01T20:55:49.922Z,100088.47
2023-05-01T20:58:17.852Z,100094.56
2023-05-01T21:00:45.751Z,100094.69
2023-05-01T21:03:15.410Z,100090.31
2023-05-01T21:05:43.469Z,100099.56
2023-05-01T21:08:11.416Z,100096.31
2023-05-01T21:10:40.272Z,100095.41
2023-05-01T21:13:09.589Z,100103.16
2023-05-01T21:15:41.655Z,100092.91
2023-05-01T21:18:12.356Z,100098.41
2023-05-01T21:20:40.698Z,100104.72
2023-05-01T21:23:08.879Z,100101.75
2023-05-01T21:25:36.789Z,100101.72
2023-05-01T21:28:06.386Z,100098.63
2023-05-01T21:30:37.420Z,100109.38
2023-05-01T21:33:06.597Z,100112.47
2023-05-01T21:35:34.938Z,100111.38
2023-05-01T21:38:05.075Z,100081.88
2023-05-01T21:40:38.428Z,100110.59
2023-05-01T21:43:07.009Z,100118.81
2023-05-01T21:45:40.282Z,100114.25
2023-05-01T21:48:09.522Z,100107.72
2023-05-01T21:50:38.675Z,100104.50
2023-05-01T21:53:07.971Z,100131.28
2023-05-01T21:55:36.021Z,100135.16
2023-05-01T21:58:04.049Z,100120.75
2023-05-01T22:00:31.995Z,100128.44
2023-05-01T22:03:02.281Z,100119.09
2023-05-01T22:05:32.902Z,100130.81
2023-05-01T22:08:01.034Z,100135.09
2023-05-01T22:10:29.763Z,100141.50
2023-05-01T22:12:57.651Z,100136.19
2023-05-01T22:15:25.885Z,100142.72
2023-05-01T22:17:53.869Z,100138.09
2023-05-01T22:20:23.358Z,100143.94
2023-05-01T22:22:51.316Z,100142.78
2023-05-01T22:25:19.235Z,100137.78
2023-05-01T22:27:47.217Z,100140.28
2023-05-01T22:30:15.150Z,100136.25
2023-05-01T22:32:43.121Z,100138.53
2023-05-01T22:35:11.265Z,100140.78
2023-05-01T22:37:40.618Z,100141.97
2023-05-01T22:40:09.634Z,100140.91
2023-05-01T22:42:37.628Z,100144.81
2023-05-01T22:45:07.118Z,100138.94
2023-05-01T22:47:35.146Z,100137.56
2023-05-01T22:50:03.324Z,100125.63
2023-05-01T22:52:31.480Z,100132.28
2023-05-01T22:55:00.780Z,100139.19
2023-05-01T22:57:28.792Z,100130.81
2023-05-01T22:59:56.833Z,100130.16
2023-05-01T23:02:24.920Z,100132.59
2023-05-01T23:04:52.820Z,100136.00
2023-05-01T23:07:20.708Z,100135.22
2023-05-01T23:09:48.928Z,100143.56
2023-05-01T23:12:23.643Z,100130.81
2023-05-01T23:14:51.517Z,100126.63
2023-05-01T23:17:19.386Z,100128.31
2023-05-01T23:19:47.327Z,100124.22
2023-05-01T23:22:15.398Z,100142.84
2023-05-01T23:24:47.691Z,100138.91
2023-05-01T23:27:16.472Z,100140.56
2023-05-01T23:29:53.982Z,100144.72
2023-05-01T23:32:26.197Z,100127.13
2023-05-01T23:34:54.622Z,100139.16
2023-05-01T23:37:22.738Z,100137.94
2023-05-01T23:39:52.506Z,100136.97
2023-05-01T23:42:20.899Z,100135.94
2023-05-01T23:44:50.353Z,100138.31
2023-05-01T23:47:18.474Z,100145.22
2023-05-01T23:49:46.441Z,100137.09
2023-05-01T23:52:14.355Z,100131.84
2023-05-01T23:54:42.218Z,100141.38
2023-05-01T23:57:10.376Z,100145.09
2023-05-01T23:59:38.574Z,100140.28
